createdAt,value
2023-02-10T00:00:45.402Z,36.30
2023-02-10T00:03:48.776Z,35.30
2023-02-10T00:06:51.300Z,28.70
2023-02-10T00:09:53.900Z,25.42
2023-02-10T00:12:56.502Z,21.02
2023-02-10T00:16:04.135Z,24.53
2023-02-10T00:19:06.863Z,24.98
2023-02-10T00:22:09.419Z,26.05
2023-02-10T00:25:11.963Z,23.10
2023-02-10T00:28:14.777Z,24.52
2023-02-10T00:31:19.890Z,20.80
2023-02-10T00:34:22.466Z,21.30
2023-02-10T00:37:25.046Z,24.88
2023-02-10T00:40:28.203Z,26.13
2023-02-10T00:43:30.810Z,24.60
2023-02-10T00:46:33.725Z,23.07
2023-02-10T00:49:36.341Z,22.33
2023-02-10T00:52:39.280Z,21.35
2023-02-10T00:55:43.196Z,23.85
2023-02-10T00:58:45.863Z,24.33
2023-02-10T01:01:48.457Z,21.67
2023-02-10T01:04:51.003Z,22.17
2023-02-10T01:07:54.031Z,21.25
2023-02-10T01:11:05.275Z,22.35
2023-02-10T01:14:07.876Z,21.90
2023-02-10T01:17:10.455Z,21.80
2023-02-10T01:20:13.296Z,21.27
2023-02-10T01:23:15.828Z,23.05
2023-02-10T01:26:18.568Z,24.33
2023-02-10T01:29:21.256Z,20.38
2023-02-10T01:32:23.822Z,22.07
2023-02-10T01:35:26.484Z,20.65
2023-02-10T01:38:29.152Z,18.75
2023-02-10T01:41:31.853Z,21.52
2023-02-10T01:44:36.667Z,20.05
2023-02-10T01:47:39.406Z,16.30
2023-02-10T01:51:06.830Z,15.32
2023-02-10T01:54:14.076Z,18.05
2023-02-10T01:57:17.798Z,16.27
2023-02-10T02:00:20.778Z,16.08
2023-02-10T02:03:23.420Z,16.33
2023-02-10T02:06:26.033Z,17.60
2023-02-10T02:09:28.588Z,19.08
2023-02-10T02:13:00.452Z,17.33
2023-02-10T02:16:24.854Z,19.42
2023-02-10T02:19:37.392Z,17.97
2023-02-10T02:22:58.347Z,19.63
2023-02-10T02:26:15.399Z,20.10
2023-02-10T02:29:43.679Z,19.00
2023-02-10T02:32:54.861Z,19.55
2023-02-10T02:36:05.319Z,19.10
2023-02-10T02:39:08.889Z,19.85
2023-02-10T02:42:11.387Z,19.23
2023-02-10T02:45:28.074Z,15.20
2023-02-10T02:48:52.702Z,18.55
2023-02-10T02:52:15.659Z,17.83
2023-02-10T02:55:44.426Z,19.27
2023-02-10T02:59:13.189Z,20.67
2023-02-10T03:02:16.924Z,18.00
2023-02-10T03:05:28.849Z,19.25
2023-02-10T03:08:32.364Z,16.67
2023-02-10T03:11:35.345Z,30.23
2023-02-10T03:14:38.006Z,22.95
2023-02-10T03:17:41.570Z,20.85
2023-02-10T03:20:45.159Z,23.63
2023-02-10T03:23:47.765Z,18.03
2023-02-10T03:26:50.356Z,21.35
2023-02-10T03:29:53.405Z,20.80
2023-02-10T03:32:56.283Z,22.50
2023-02-10T03:35:59.277Z,24.80
2023-02-10T03:39:04.111Z,22.00
2023-02-10T03:42:07.978Z,16.20
2023-02-10T03:45:10.692Z,17.52
2023-02-10T03:48:13.663Z,15.27
2023-02-10T03:51:16.519Z,16.08
2023-02-10T03:54:19.122Z,18.83
2023-02-10T03:57:21.681Z,17.00
2023-02-10T04:00:24.453Z,15.93
2023-02-10T04:03:27.221Z,18.80
2023-02-10T04:06:29.891Z,17.58
2023-02-10T04:09:32.524Z,18.73
2023-02-10T04:12:35.241Z,20.25
2023-02-10T04:15:38.366Z,18.98
2023-02-10T04:18:42.673Z,17.42
2023-02-10T04:21:45.285Z,17.73
2023-02-10T04:24:47.872Z,16.70
2023-02-10T04:27:50.391Z,16.60
2023-02-10T04:30:57.729Z,19.20
2023-02-10T04:34:00.437Z,23.90
2023-02-10T04:37:03.336Z,24.33
2023-02-10T04:40:06.284Z,22.73
2023-02-10T04:43:08.828Z,22.77
2023-02-10T04:46:11.438Z,20.20
2023-02-10T04:49:13.997Z,28.50
2023-02-10T04:52:16.527Z,24.80
2023-02-10T04:55:19.377Z,23.30
2023-02-10T04:58:23.024Z,25.05
2023-02-10T05:01:25.627Z,24.67
2023-02-10T05:04:28.213Z,20.35
2023-02-10T05:07:31.060Z,21.73
2023-02-10T05:10:33.702Z,16.63
2023-02-10T05:13:36.528Z,31.73
2023-02-10T05:16:39.351Z,25.95
2023-02-10T05:19:41.977Z,22.67
2023-02-10T05:22:44.534Z,23.00
2023-02-10T05:25:48.337Z,21.90
2023-02-10T05:28:51.002Z,22.70
2023-02-10T05:31:53.675Z,25.13
2023-02-10T05:34:56.262Z,25.33
2023-02-10T05:37:58.959Z,21.27
2023-02-10T05:41:01.688Z,17.70
2023-02-10T05:44:04.961Z,20.13
2023-02-10T05:47:07.539Z,25.80
2023-02-10T05:50:10.192Z,22.75
2023-02-10T05:53:14.135Z,25.77
2023-02-10T05:56:16.978Z,19.70
2023-02-10T05:59:19.952Z,21.17
2023-02-10T06:02:22.541Z,20.45
2023-02-10T06:05:25.301Z,18.73
2023-02-10T06:08:28.339Z,18.45
2023-02-10T06:11:31.026Z,17.83
2023-02-10T06:14:33.688Z,17.67
2023-02-10T06:17:36.379Z,18.00
2023-02-10T06:20:38.963Z,21.80
2023-02-10T06:23:41.598Z,41.80
2023-02-10T06:26:46.630Z,33.73
2023-02-10T06:29:49.501Z,33.08
2023-02-10T06:32:52.200Z,30.27
2023-02-10T06:35:54.968Z,33.38
2023-02-10T06:38:57.599Z,25.95
2023-02-10T06:42:01.011Z,36.93
2023-02-10T06:45:04.355Z,37.33
2023-02-10T06:48:07.579Z,29.25
2023-02-10T06:51:10.335Z,24.85
2023-02-10T06:54:12.951Z,28.08
2023-02-10T06:57:15.958Z,30.37
2023-02-10T07:00:18.722Z,23.27
2023-02-10T07:03:22.089Z,27.58
2023-02-10T07:06:24.808Z,27.17
2023-02-10T07:09:28.321Z,27.40
2023-02-10T07:12:31.325Z,28.53
2023-02-10T07:15:34.265Z,32.55
2023-02-10T07:18:37.505Z,36.55
2023-02-10T07:21:40.473Z,33.22
2023-02-10T07:24:43.910Z,31.73
2023-02-10T07:27:46.874Z,31.30
2023-02-10T07:30:49.821Z,29.65
2023-02-10T07:33:52.551Z,33.75
2023-02-10T07:36:55.295Z,28.27
2023-02-10T07:39:58.405Z,31.75
2023-02-10T07:43:01.343Z,31.50
2023-02-10T07:46:23.242Z,28.05
2023-02-10T07:49:28.000Z,29.27
2023-02-10T07:52:30.737Z,30.05
2023-02-10T07:55:33.488Z,35.15
2023-02-10T07:58:38.151Z,34.03
2023-02-10T08:01:44.369Z,33.45
2023-02-10T08:04:48.139Z,48.08
2023-02-10T08:07:50.964Z,68.10
2023-02-10T08:10:53.790Z,54.85
2023-02-10T08:13:56.474Z,36.33
2023-02-10T08:17:01.098Z,29.13
2023-02-10T08:20:04.649Z,26.40
2023-02-10T08:23:08.182Z,24.23
2023-02-10T08:26:13.646Z,23.83
2023-02-10T08:29:16.559Z,23.43
2023-02-10T08:32:20.096Z,23.45
2023-02-10T08:35:33.028Z,23.65
2023-02-10T08:38:36.415Z,26.20
2023-02-10T08:41:39.421Z,34.13
2023-02-10T08:44:42.184Z,32.20
2023-02-10T08:47:45.334Z,28.75
2023-02-10T08:50:48.038Z,23.77
2023-02-10T08:53:50.830Z,21.33
2023-02-10T08:56:57.074Z,22.42
2023-02-10T09:00:00.098Z,21.93
2023-02-10T09:03:03.353Z,17.85
2023-02-10T09:06:06.380Z,12.90
2023-02-10T09:09:11.379Z,12.40
2023-02-10T09:12:17.029Z,9.88
2023-02-10T09:15:19.926Z,10.83
2023-02-10T09:18:22.735Z,10.32
2023-02-10T09:21:29.033Z,10.23
2023-02-10T09:24:34.302Z,11.80
2023-02-10T09:27:37.288Z,10.93
2023-02-10T09:30:40.073Z,11.17
2023-02-10T09:33:43.864Z,10.35
2023-02-10T09:36:46.581Z,11.45
2023-02-10T09:39:49.369Z,10.88
2023-02-10T09:42:59.292Z,10.55
2023-02-10T09:46:34.328Z,8.30
2023-02-10T09:49:52.328Z,10.48
2023-02-10T09:53:07.604Z,12.52
2023-02-10T09:56:22.049Z,11.13
2023-02-10T09:59:27.234Z,11.07
2023-02-10T10:02:35.000Z,12.20
2023-02-10T10:06:01.685Z,11.32
2023-02-10T10:09:18.363Z,11.35
2023-02-10T10:12:24.541Z,11.02
2023-02-10T10:15:37.007Z,11.48
2023-02-10T10:18:48.934Z,10.83
2023-02-10T10:22:05.238Z,11.45
2023-02-10T10:25:34.044Z,11.90
2023-02-10T10:29:02.444Z,12.75
2023-02-10T10:32:24.507Z,11.77
2023-02-10T10:35:39.578Z,10.33
2023-02-10T10:38:49.165Z,13.80
2023-02-10T10:41:52.725Z,12.48
2023-02-10T10:45:05.595Z,13.95
2023-02-10T10:48:27.667Z,13.80
2023-02-10T10:51:32.394Z,13.63
2023-02-10T10:54:36.170Z,13.20
2023-02-10T10:57:39.375Z,12.40
2023-02-10T11:00:53.311Z,10.48
2023-02-10T11:04:24.546Z,13.27
2023-02-10T11:07:29.455Z,11.17
2023-02-10T11:10:54.338Z,11.18
2023-02-10T11:13:57.044Z,11.57
2023-02-10T11:17:03.648Z,14.38
2023-02-10T11:20:37.113Z,11.95
2023-02-10T11:23:59.949Z,11.23
2023-02-10T11:27:13.411Z,12.25
2023-02-10T11:30:38.322Z,12.90
2023-02-10T11:33:41.766Z,14.25
2023-02-10T11:36:45.755Z,13.68
2023-02-10T11:39:48.808Z,12.03
2023-02-10T11:42:59.274Z,10.98
2023-02-10T11:46:05.130Z,12.52
2023-02-10T11:49:18.892Z,11.60
2023-02-10T11:52:23.760Z,9.93
2023-02-10T11:55:38.549Z,10.80
2023-02-10T11:59:19.997Z,12.05
2023-02-10T12:02:37.601Z,11.43
2023-02-10T12:06:10.329Z,11.25
2023-02-10T12:09:38.004Z,10.55
2023-02-10T12:12:41.022Z,11.57
2023-02-10T12:15:58.778Z,11.07
2023-02-10T12:19:30.307Z,12.23
2023-02-10T12:22:54.741Z,9.98
2023-02-10T12:26:21.148Z,10.30
2023-02-10T12:30:02.863Z,12.20
2023-02-10T12:33:17.914Z,12.52
2023-02-10T12:36:33.528Z,12.93
2023-02-10T12:39:41.269Z,11.85
2023-02-10T12:43:19.563Z,13.48
2023-02-10T12:46:22.603Z,12.13
2023-02-10T12:49:37.382Z,11.73
2023-02-10T12:52:51.984Z,12.68
2023-02-10T12:56:10.223Z,11.75
2023-02-10T12:59:18.266Z,12.60
2023-02-10T13:02:33.588Z,12.87
2023-02-10T13:06:10.138Z,13.50
2023-02-10T13:09:14.749Z,12.07
2023-02-10T13:12:25.585Z,13.65
2023-02-10T13:15:46.091Z,11.90
2023-02-10T13:19:12.090Z,13.17
2023-02-10T13:22:17.545Z,12.75
2023-02-10T13:25:30.663Z,14.02
2023-02-10T13:28:40.650Z,13.55
2023-02-10T13:31:54.662Z,12.48
2023-02-10T13:35:01.889Z,12.50
2023-02-10T13:38:09.999Z,11.45
2023-02-10T13:41:42.466Z,12.70
2023-02-10T13:44:45.624Z,11.82
2023-02-10T13:47:48.268Z,13.05
2023-02-10T13:50:56.543Z,11.70
2023-02-10T13:53:59.281Z,12.07
2023-02-10T13:57:01.900Z,11.77
2023-02-10T14:00:22.179Z,10.57
2023-02-10T14:03:31.031Z,11.55
2023-02-10T14:06:42.337Z,11.33
2023-02-10T14:09:47.971Z,10.93
2023-02-10T14:13:06.751Z,11.85
2023-02-10T14:16:15.416Z,12.32
2023-02-10T14:19:22.149Z,13.13
2023-02-10T14:22:34.535Z,11.40
2023-02-10T14:25:42.090Z,11.77
2023-02-10T14:28:49.992Z,13.23
2023-02-10T14:31:56.767Z,12.50
2023-02-10T14:35:02.406Z,12.57
2023-02-10T14:38:05.210Z,13.97
2023-02-10T14:41:20.179Z,15.23
2023-02-10T14:44:45.172Z,16.75
2023-02-10T14:47:50.293Z,15.70
2023-02-10T14:51:06.296Z,15.45
2023-02-10T14:54:11.591Z,12.63
2023-02-10T14:57:16.900Z,14.02
2023-02-10T15:00:20.472Z,14.15
2023-02-10T15:03:24.569Z,15.02
2023-02-10T15:06:31.632Z,14.73
2023-02-10T15:09:36.989Z,12.70
2023-02-10T15:12:49.671Z,14.80
2023-02-10T15:15:53.847Z,15.82
2023-02-10T15:18:56.626Z,13.57
2023-02-10T15:21:59.398Z,14.07
2023-02-10T15:25:20.546Z,15.53
2023-02-10T15:28:27.542Z,15.73
2023-02-10T15:31:30.597Z,13.65
2023-02-10T15:34:33.314Z,13.80
2023-02-10T15:37:38.216Z,21.40
2023-02-10T15:40:41.568Z,22.67
2023-02-10T15:43:49.137Z,21.48
2023-02-10T15:46:55.084Z,20.58
2023-02-10T15:49:59.403Z,23.85
2023-02-10T15:53:02.098Z,18.05
2023-02-10T15:56:05.168Z,17.30
2023-02-10T15:59:16.577Z,17.90
2023-02-10T16:02:20.218Z,19.75
2023-02-10T16:05:24.185Z,20.45
2023-02-10T16:08:26.900Z,20.33
2023-02-10T16:11:29.840Z,16.13
2023-02-10T16:14:32.562Z,16.50
2023-02-10T16:17:40.151Z,20.17
2023-02-10T16:20:42.983Z,21.17
2023-02-10T16:23:45.867Z,17.38
2023-02-10T16:26:48.712Z,16.10
2023-02-10T16:29:51.644Z,14.98
2023-02-10T16:32:55.872Z,17.60
2023-02-10T16:36:01.933Z,16.17
2023-02-10T16:39:05.464Z,15.60
2023-02-10T16:42:08.227Z,15.77
2023-02-10T16:45:11.050Z,13.70
2023-02-10T16:48:15.452Z,15.20
2023-02-10T16:51:18.160Z,15.02
2023-02-10T16:54:20.967Z,14.38
2023-02-10T16:57:23.733Z,14.20
2023-02-10T17:00:27.077Z,14.95
2023-02-10T17:03:29.788Z,15.27
2023-02-10T17:06:34.528Z,14.38
2023-02-10T17:09:38.455Z,15.60
2023-02-10T17:12:41.285Z,15.67
2023-02-10T17:15:44.032Z,14.60
2023-02-10T17:18:46.715Z,13.70
2023-02-10T17:21:49.489Z,13.82
2023-02-10T17:24:52.316Z,14.20
2023-02-10T17:27:55.248Z,13.97
2023-02-10T17:30:58.280Z,15.65
2023-02-10T17:34:01.474Z,16.42
2023-02-10T17:37:06.645Z,14.80
2023-02-10T17:40:26.151Z,15.40
2023-02-10T17:43:30.330Z,14.70
2023-02-10T17:46:33.075Z,14.05
2023-02-10T17:49:35.904Z,13.00
2023-02-10T17:52:38.735Z,13.27
2023-02-10T17:55:42.536Z,12.10
2023-02-10T17:58:46.358Z,13.63
2023-02-10T18:01:50.822Z,13.02
2023-02-10T18:04:54.100Z,15.52
2023-02-10T18:07:56.887Z,13.45
2023-02-10T18:10:59.629Z,13.38
2023-02-10T18:14:02.721Z,14.00
2023-02-10T18:17:09.215Z,12.73
2023-02-10T18:20:12.606Z,14.57
2023-02-10T18:23:15.538Z,14.93
2023-02-10T18:26:19.494Z,13.05
2023-02-10T18:29:22.295Z,13.77
2023-02-10T18:32:25.054Z,13.88
2023-02-10T18:35:28.389Z,14.73
2023-02-10T18:38:31.147Z,13.60
2023-02-10T18:41:33.969Z,15.30
2023-02-10T18:44:37.127Z,13.53
2023-02-10T18:47:39.835Z,14.68
2023-02-10T18:50:46.127Z,15.43
2023-02-10T18:53:50.308Z,14.45
2023-02-10T18:56:53.119Z,15.30
2023-02-10T18:59:55.983Z,15.97
2023-02-10T19:02:58.817Z,16.13
2023-02-10T19:06:01.861Z,15.25
2023-02-10T19:09:04.676Z,15.75
2023-02-10T19:12:08.990Z,15.88
2023-02-10T19:15:11.692Z,16.73
2023-02-10T19:18:14.503Z,17.90
2023-02-10T19:21:17.370Z,17.40
2023-02-10T19:24:20.132Z,17.98
2023-02-10T19:27:23.080Z,17.35
2023-02-10T19:30:26.288Z,19.57
2023-02-10T19:33:29.263Z,16.75
2023-02-10T19:36:32.105Z,20.17
2023-02-10T19:39:35.912Z,21.67
2023-02-10T19:42:38.640Z,23.40
2023-02-10T19:45:41.525Z,26.40
2023-02-10T19:48:45.638Z,33.47
2023-02-10T19:51:48.732Z,39.92
2023-02-10T19:54:51.639Z,26.55
2023-02-10T19:57:54.252Z,19.15
2023-02-10T20:01:26.653Z,18.73
2023-02-10T20:04:29.561Z,20.17
2023-02-10T20:07:33.153Z,19.30
2023-02-10T20:10:36.131Z,20.02
2023-02-10T20:13:38.948Z,19.98
2023-02-10T20:16:45.056Z,22.33
2023-02-10T20:19:48.021Z,20.98
2023-02-10T20:22:50.873Z,19.73
2023-02-10T20:25:53.886Z,19.02
2023-02-10T20:28:57.099Z,17.83
2023-02-10T20:32:00.004Z,17.07
2023-02-10T20:35:03.019Z,15.43
2023-02-10T20:38:06.072Z,16.83
2023-02-10T20:41:09.006Z,15.60
2023-02-10T20:44:11.715Z,18.80
2023-02-10T20:47:14.410Z,17.93
2023-02-10T20:50:17.254Z,16.52
2023-02-10T20:53:20.051Z,17.98
2023-02-10T20:56:23.171Z,18.10
2023-02-10T20:59:26.033Z,17.92
2023-02-10T21:02:28.949Z,18.10
2023-02-10T21:05:31.612Z,19.08
2023-02-10T21:08:34.633Z,18.52
2023-02-10T21:11:37.798Z,16.92
2023-02-10T21:14:40.603Z,17.45
2023-02-10T21:17:43.313Z,16.13
2023-02-10T21:20:46.052Z,18.00
2023-02-10T21:23:49.655Z,16.98
2023-02-10T21:26:52.721Z,15.98
2023-02-10T21:29:55.932Z,16.10
2023-02-10T21:32:59.670Z,14.33
2023-02-10T21:36:02.461Z,14.27
2023-02-10T21:39:07.949Z,15.00
2023-02-10T21:42:10.694Z,14.63
2023-02-10T21:45:13.723Z,16.42
2023-02-10T21:48:16.900Z,14.13
2023-02-10T21:51:19.757Z,15.75
2023-02-10T21:54:23.902Z,15.73
2023-02-10T21:57:26.645Z,14.35
2023-02-10T22:00:29.227Z,17.27
2023-02-10T22:03:33.755Z,15.30
2023-02-10T22:06:38.657Z,13.18
2023-02-10T22:09:41.405Z,14.30
2023-02-10T22:12:44.121Z,14.68
2023-02-10T22:16:00.581Z,12.88
2023-02-10T22:19:05.602Z,13.97
2023-02-10T22:22:08.517Z,12.60
2023-02-10T22:25:11.112Z,12.95
2023-02-10T22:28:16.956Z,15.38
2023-02-10T22:31:30.898Z,12.63
2023-02-10T22:34:34.287Z,16.17
2023-02-10T22:37:36.895Z,13.73
2023-02-10T22:40:43.622Z,15.52
2023-02-10T22:43:46.754Z,14.88
2023-02-10T22:46:49.272Z,17.90
2023-02-10T22:49:54.842Z,16.57
2023-02-10T22:53:03.250Z,14.73
2023-02-10T22:56:20.763Z,16.80
2023-02-10T22:59:23.435Z,14.32
2023-02-10T23:02:28.116Z,14.15
2023-02-10T23:05:30.839Z,15.33
2023-02-10T23:08:34.116Z,14.25
2023-02-10T23:11:39.406Z,13.55
2023-02-10T23:14:42.019Z,14.10
2023-02-10T23:17:44.524Z,13.27
2023-02-10T23:20:47.285Z,13.13
2023-02-10T23:23:54.352Z,13.60
2023-02-10T23:27:00.962Z,12.95
2023-02-10T23:30:03.743Z,14.88
2023-02-10T23:33:09.063Z,16.05
2023-02-10T23:36:12.434Z,15.10
2023-02-10T23:39:14.963Z,16.00
2023-02-10T23:42:17.565Z,14.73
2023-02-10T23:45:25.406Z,14.57
2023-02-10T23:48:28.060Z,15.18
2023-02-10T23:51:30.731Z,14.63
2023-02-10T23:54:33.740Z,14.50
2023-02-10T23:57:39.363Z,14.45
